Time,TemperatureF,DewpointF,PressureIn,WindDirection,WindDirectionDegrees,WindSpeedMPH,WindSpeedGustMPH,Humidity,HourlyPrecipIn,Conditions,Clouds,dailyrainin,SoftwareType,DateUTC
2013-03-09 00:00:00,34.0,33.2,30.16,ENE,64,2.0,0.0,97,0.00,,,0.00,WeatherTracker,2013-03-09 05:00:00,
2013-03-09 00:05:00,33.9,33.1,30.16,East,85,5.0,0.0,97,0.00,,,0.00,WeatherTracker,2013-03-09 05:05:00,
2013-03-09 00:10:00,33.8,33.0,30.16,SE,140,2.0,0.0,97,0.00,,,0.00,WeatherTracker,2013-03-09 05:10:00,
2013-03-09 00:20:00,33.8,33.0,30.17,NNE,24,2.0,0.0,97,0.00,,,0.00,WeatherTracker,2013-03-09 05:20:00,
2013-03-09 00:25:00,33.8,33.0,30.16,NE,49,5.0,0.0,97,0.00,,,0.00,WeatherTracker,2013-03-09 05:25:00,
2013-03-09 00:35:00,33.8,33.3,30.16,East,86,2.0,0.0,98,0.00,,,0.00,WeatherTracker,2013-03-09 05:35:00,
2013-03-09 00:40:00,33.8,33.0,30.16,East,82,1.0,0.0,97,0.00,,,0.00,WeatherTracker,2013-03-09 05:40:00,
2013-03-09 00:45:00,33.8,33.0,30.17,SSE,151,0.0,0.0,97,0.00,,,0.00,WeatherTracker,2013-03-09 05:45:00,
2013-03-09 00:55:00,33.7,33.2,30.17,ESE,117,2.0,0.0,98,0.01,,,0.01,WeatherTracker,2013-03-09 05:55:00,
2013-03-09 01:00:00,33.7,33.2,30.17,ESE,108,0.0,0.0,98,0.01,,,0.01,WeatherTracker,2013-03-09 06:00:00,
2013-03-09 01:05:00,33.6,33.1,30.17,ESE,113,2.0,0.0,98,0.01,,,0.01,WeatherTracker,2013-03-09 06:05:00,
2013-03-09 01:10:00,33.6,33.1,30.17,ESE,108,1.0,0.0,98,0.01,,,0.01,WeatherTracker,2013-03-09 06:10:00,
2013-03-09 01:15:00,33.6,33.1,30.17,ENE,67,2.0,0.0,98,0.01,,,0.01,WeatherTracker,2013-03-09 06:15:00,
2013-03-09 01:20:00,33.5,33.0,30.17,ESE,102,7.0,0.0,98,0.01,,,0.01,WeatherTracker,2013-03-09 06:20:00,
2013-03-09 01:25:00,33.6,33.1,30.17,ENE,78,2.0,0.0,98,0.01,,,0.01,WeatherTracker,2013-03-09 06:25:00,
2013-03-09 01:30:00,33.5,32.7,30.17,ESE,103,2.0,0.0,97,0.01,,,0.01,WeatherTracker,2013-03-09 06:30:00,
2013-03-09 01:35:00,33.5,32.7,30.17,East,93,6.0,0.0,97,0.01,,,0.01,WeatherTracker,2013-03-09 06:35:00,
2013-03-09 01:45:00,33.4,32.6,30.17,ENE,74,7.0,0.0,97,0.01,,,0.01,WeatherTracker,2013-03-09 06:45:00,
2013-03-09 01:55:00,33.3,32.5,30.17,ESE,115,2.0,0.0,97,0.00,,,0.01,WeatherTracker,2013-03-09 06:55:00,
2013-03-09 02:00:00,33.2,32.4,30.17,ENE,77,3.0,0.0,97,0.00,,,0.01,WeatherTracker,2013-03-09 07:00:00,
2013-03-09 02:10:00,33.0,32.2,30.17,ESE,123,1.0,0.0,97,0.00,,,0.01,WeatherTracker,2013-03-09 07:10:00,
2013-03-09 02:15:00,32.9,32.1,30.17,ESE,103,2.0,0.0,97,0.00,,,0.01,WeatherTracker,2013-03-09 07:15:00,
2013-03-09 02:25:00,32.9,32.1,30.17,ESE,122,1.0,0.0,97,0.00,,,0.01,WeatherTracker,2013-03-09 07:25:00,
2013-03-09 02:35:00,32.6,31.8,30.17,ESE,106,2.0,0.0,97,0.00,,,0.01,WeatherTracker,2013-03-09 07:35:00,
2013-03-09 02:40:00,32.5,31.7,30.17,ENE,67,0.0,0.0,97,0.00,,,0.01,WeatherTracker,2013-03-09 07:40:00,
2013-03-09 02:50:00,32.4,31.4,30.16,East,99,3.0,0.0,96,0.00,,,0.01,WeatherTracker,2013-03-09 07:50:00,
2013-03-09 02:55:00,32.3,31.3,30.16,ESE,115,3.0,0.0,96,0.00,,,0.01,WeatherTracker,2013-03-09 07:55:00,
2013-03-09 03:00:00,32.1,31.1,30.16,East,101,0.0,0.0,96,0.00,,,0.01,WeatherTracker,2013-03-09 08:00:00,
2013-03-09 03:10:00,31.8,30.5,30.16,SE,126,0.0,0.0,95,0.00,,,0.01,WeatherTracker,2013-03-09 08:10:00,
2013-03-09 03:15:00,31.7,30.4,30.16,East,95,0.0,0.0,95,0.00,,,0.01,WeatherTracker,2013-03-09 08:15:00,
2013-03-09 03:20:00,31.7,30.4,30.16,ESE,114,2.0,0.0,95,0.00,,,0.01,WeatherTracker,2013-03-09 08:20:00,
2013-03-09 03:25:00,31.5,30.2,30.16,ESE,119,1.0,0.0,95,0.00,,,0.01,WeatherTracker,2013-03-09 08:25:00,
2013-03-09 03:35:00,31.3,30.0,30.16,ESE,104,2.0,0.0,95,0.00,,,0.01,WeatherTracker,2013-03-09 08:35:00,
2013-03-09 03:40:00,31.2,29.7,30.16,ESE,118,0.0,0.0,94,0.00,,,0.01,WeatherTracker,2013-03-09 08:40:00,
2013-03-09 03:45:00,31.1,29.6,30.17,East,86,0.0,0.0,94,0.00,,,0.01,WeatherTracker,2013-03-09 08:45:00,
2013-03-09 03:55:00,31.0,29.7,30.17,SE,144,0.0,0.0,95,0.00,,,0.01,WeatherTracker,2013-03-09 08:55:00,
2013-03-09 04:00:00,30.9,29.6,30.17,East,93,0.0,0.0,95,0.00,,,0.01,WeatherTracker,2013-03-09 09:00:00,
2013-03-09 04:10:00,30.7,29.4,30.18,SE,135,0.0,0.0,95,0.00,,,0.01,WeatherTracker,2013-03-09 09:10:00,
2013-03-09 04:15:00,30.5,29.2,30.18,ESE,120,2.0,0.0,95,0.00,,,0.01,WeatherTracker,2013-03-09 09:15:00,
2013-03-09 04:25:00,30.2,28.9,30.18,SE,127,2.0,0.0,95,0.00,,,0.01,WeatherTracker,2013-03-09 09:25:00,
2013-03-09 04:35:00,29.9,28.4,30.19,SE,138,1.0,0.0,94,0.00,,,0.01,WeatherTracker,2013-03-09 09:35:00,
2013-03-09 04:40:00,29.8,28.3,30.19,SE,130,2.0,0.0,94,0.00,,,0.01,WeatherTracker,2013-03-09 09:40:00,
2013-03-09 04:50:00,29.7,28.2,30.19,East,96,2.0,0.0,94,0.00,,,0.01,WeatherTracker,2013-03-09 09:50:00,
2013-03-09 04:55:00,29.8,28.3,30.20,SE,128,3.0,0.0,94,0.00,,,0.01,WeatherTracker,2013-03-09 09:55:00,
2013-03-09 05:05:00,30.0,28.2,30.20,East,96,2.0,0.0,93,0.00,,,0.01,WeatherTracker,2013-03-09 10:05:00,
2013-03-09 05:10:00,30.1,28.6,30.19,East,86,2.0,0.0,94,0.00,,,0.01,WeatherTracker,2013-03-09 10:10:00,
2013-03-09 05:15:00,30.1,28.3,30.20,ESE,119,4.0,0.0,93,0.00,,,0.01,WeatherTracker,2013-03-09 10:15:00,
2013-03-09 05:25:00,30.1,28.3,30.20,NE,52,0.0,0.0,93,0.00,,,0.01,WeatherTracker,2013-03-09 10:25:00,
2013-03-09 05:30:00,30.1,28.3,30.20,ESE,120,2.0,0.0,93,0.00,,,0.01,WeatherTracker,2013-03-09 10:30:00,
2013-03-09 05:40:00,30.1,28.1,30.21,East,79,0.0,0.0,92,0.00,,,0.01,WeatherTracker,2013-03-09 10:40:00,
2013-03-09 05:50:00,30.1,28.1,30.21,East,84,2.0,0.0,92,0.00,,,0.01,WeatherTracker,2013-03-09 10:50:00,
2013-03-09 05:55:00,30.0,28.0,30.21,SE,124,5.0,0.0,92,0.00,,,0.01,WeatherTracker,2013-03-09 10:55:00,
2013-03-09 06:05:00,29.8,28.0,30.21,NE,53,0.0,0.0,93,0.00,,,0.01,WeatherTracker,2013-03-09 11:05:00,
2013-03-09 06:15:00,29.8,28.0,30.21,ESE,117,1.0,0.0,93,0.00,,,0.01,WeatherTracker,2013-03-09 11:15:00,
2013-03-09 06:20:00,29.8,28.0,30.22,SE,136,1.0,0.0,93,0.00,,,0.01,WeatherTracker,2013-03-09 11:20:00,
2013-03-09 06:30:00,29.6,27.8,30.22,ESE,121,2.0,0.0,93,0.00,,,0.01,WeatherTracker,2013-03-09 11:30:00,
2013-03-09 06:35:00,29.6,27.8,30.22,East,99,0.0,0.0,93,0.00,,,0.01,WeatherTracker,2013-03-09 11:35:00,
2013-03-09 06:40:00,29.6,27.8,30.23,East,100,1.0,0.0,93,0.00,,,0.01,WeatherTracker,2013-03-09 11:40:00,
2013-03-09 06:50:00,30.0,28.2,30.23,ESE,113,2.0,0.0,93,0.00,,,0.01,WeatherTracker,2013-03-09 11:50:00,
2013-03-09 07:00:00,30.5,28.7,30.23,ESE,113,1.0,0.0,93,0.00,,,0.01,WeatherTracker,2013-03-09 12:00:00,
2013-03-09 07:05:00,30.8,29.0,30.24,SE,128,2.0,0.0,93,0.00,,,0.01,WeatherTracker,2013-03-09 12:05:00,
2013-03-09 07:15:00,31.3,29.3,30.24,ESE,104,1.0,0.0,92,0.00,,,0.01,WeatherTracker,2013-03-09 12:15:00,
2013-03-09 07:20:00,31.6,29.5,30.25,NE,48,1.0,0.0,92,0.00,,,0.01,WeatherTracker,2013-03-09 12:20:00,
2013-03-09 07:25:00,31.8,29.5,30.25,ENE,67,1.0,0.0,91,0.00,,,0.01,WeatherTracker,2013-03-09 12:25:00,
2013-03-09 07:35:00,32.4,29.8,30.25,ENE,71,2.0,0.0,90,0.00,,,0.01,WeatherTracker,2013-03-09 12:35:00,
2013-03-09 07:45:00,32.8,30.2,30.25,SE,131,6.0,0.0,90,0.00,,,0.01,WeatherTracker,2013-03-09 12:45:00,
2013-03-09 07:50:00,33.1,30.2,30.25,ENE,75,5.0,0.0,89,0.00,,,0.01,WeatherTracker,2013-03-09 12:50:00,
2013-03-09 07:55:00,33.4,30.5,30.25,ESE,117,3.0,0.0,89,0.00,,,0.01,WeatherTracker,2013-03-09 12:55:00,
2013-03-09 08:05:00,33.9,30.7,30.25,SE,134,2.0,0.0,88,0.00,,,0.01,WeatherTracker,2013-03-09 13:05:00,
2013-03-09 08:15:00,34.2,31.0,30.24,East,86,2.0,0.0,88,0.00,,,0.01,WeatherTracker,2013-03-09 13:15:00,
2013-03-09 08:25:00,34.5,31.0,30.24,NE,45,4.0,0.0,87,0.00,,,0.01,WeatherTracker,2013-03-09 13:25:00,
2013-03-09 08:30:00,34.6,31.4,30.25,East,80,5.0,0.0,88,0.00,,,0.01,WeatherTracker,2013-03-09 13:30:00,
2013-03-09 08:35:00,34.8,31.6,30.25,East,90,1.0,0.0,88,0.00,,,0.01,WeatherTracker,2013-03-09 13:35:00,
2013-03-09 08:40:00,35.2,32.0,30.25,ENE,62,0.0,0.0,88,0.00,,,0.01,WeatherTracker,2013-03-09 13:40:00,
2013-03-09 08:45:00,35.5,32.3,30.25,South,184,4.0,0.0,88,0.00,,,0.01,WeatherTracker,2013-03-09 13:45:00,
2013-03-09 08:50:00,35.5,32.3,30.25,East,95,10.0,0.0,88,0.00,,,0.01,WeatherTracker,2013-03-09 13:50:00,
2013-03-09 09:00:00,35.5,32.0,30.25,East,96,5.0,0.0,87,0.00,,,0.01,WeatherTracker,2013-03-09 14:00:00,
2013-03-09 09:10:00,36.0,31.9,30.25,NE,40,7.0,0.0,85,0.00,,,0.01,WeatherTracker,2013-03-09 14:10:00,
2013-03-09 09:15:00,36.3,31.9,30.25,ESE,121,5.0,0.0,84,0.01,,,0.02,WeatherTracker,2013-03-09 14:15:00,
2013-03-09 09:25:00,36.7,31.7,30.25,ESE,117,8.0,0.0,82,0.03,,,0.04,WeatherTracker,2013-03-09 14:25:00,
2013-03-09 09:30:00,36.8,32.4,30.25,East,79,8.0,0.0,84,0.03,,,0.04,WeatherTracker,2013-03-09 14:30:00,
2013-03-09 09:40:00,36.8,32.1,30.25,East,83,7.0,0.0,83,0.04,,,0.05,WeatherTracker,2013-03-09 14:40:00,
2013-03-09 09:45:00,37.1,32.4,30.25,East,83,2.0,0.0,83,0.05,,,0.06,WeatherTracker,2013-03-09 14:45:00,
2013-03-09 09:55:00,37.3,32.3,30.25,NE,48,4.0,0.0,82,0.06,,,0.07,WeatherTracker,2013-03-09 14:55:00,
2013-03-09 10:05:00,37.2,32.2,30.25,NE,35,8.0,0.0,82,0.07,,,0.08,WeatherTracker,2013-03-09 15:05:00,
2013-03-09 10:10:00,37.3,32.3,30.26,ESE,117,13.0,0.0,82,0.07,,,0.08,WeatherTracker,2013-03-09 15:10:00,
2013-03-09 10:20:00,37.6,32.6,30.25,East,90,6.0,0.0,82,0.05,,,0.09,WeatherTracker,2013-03-09 15:20:00,
2013-03-09 10:25:00,37.7,32.7,30.26,NE,42,5.0,0.0,82,0.05,,,0.09,WeatherTracker,2013-03-09 15:25:00,
2013-03-09 10:30:00,38.0,32.4,30.26,SE,128,5.0,0.0,80,0.06,,,0.10,WeatherTracker,2013-03-09 15:30:00,
2013-03-09 10:35:00,38.3,33.3,30.26,East,86,7.0,0.0,82,0.05,,,0.10,WeatherTracker,2013-03-09 15:35:00,
2013-03-09 10:40:00,38.7,33.1,30.26,ESE,108,4.0,0.0,80,0.06,,,0.11,WeatherTracker,2013-03-09 15:40:00,
2013-03-09 10:45:00,38.9,33.0,30.26,ESE,123,5.0,0.0,79,0.06,,,0.12,WeatherTracker,2013-03-09 15:45:00,
2013-03-09 10:55:00,38.6,33.9,30.25,ENE,69,1.0,0.0,83,0.06,,,0.13,WeatherTracker,2013-03-09 15:55:00,
2013-03-09 11:05:00,38.9,34.2,30.26,ENE,62,9.0,0.0,83,0.06,,,0.14,WeatherTracker,2013-03-09 16:05:00,
2013-03-09 11:10:00,39.0,34.0,30.26,North,360,5.0,0.0,82,0.06,,,0.14,WeatherTracker,2013-03-09 16:10:00,
2013-03-09 11:15:00,39.4,34.1,30.26,East,101,5.0,0.0,81,0.07,,,0.15,WeatherTracker,2013-03-09 16:15:00,
2013-03-09 11:25:00,40.0,34.3,30.26,ESE,109,0.0,0.0,80,0.07,,,0.16,WeatherTracker,2013-03-09 16:25:00,
2013-03-09 11:30:00,40.3,35.2,30.26,ENE,60,0.0,0.0,82,0.07,,,0.17,WeatherTracker,2013-03-09 16:30:00,
2013-03-09 11:35:00,40.5,35.8,30.26,ENE,61,3.0,0.0,83,0.08,,,0.18,WeatherTracker,2013-03-09 16:35:00,
2013-03-09 11:40:00,40.7,36.2,30.26,East,85,3.0,0.0,84,0.07,,,0.18,WeatherTracker,2013-03-09 16:40:00,
2013-03-09 11:45:00,40.9,36.4,30.26,ENE,76,1.0,0.0,84,0.07,,,0.19,WeatherTracker,2013-03-09 16:45:00,
2013-03-09 11:55:00,41.1,36.3,30.26,ESE,114,3.0,0.0,83,0.07,,,0.20,WeatherTracker,2013-03-09 16:55:00,
2013-03-09 12:00:00,41.5,36.7,30.26,ENE,74,4.0,0.0,83,0.07,,,0.20,WeatherTracker,2013-03-09 17:00:00,
2013-03-09 12:10:00,41.7,37.2,30.26,NE,36,4.0,0.0,84,0.07,,,0.21,WeatherTracker,2013-03-09 17:10:00,
2013-03-09 12:20:00,42.1,36.7,30.26,East,97,5.0,0.0,81,0.06,,,0.22,WeatherTracker,2013-03-09 17:20:00,
2013-03-09 12:25:00,42.3,36.3,30.26,ESE,121,4.0,0.0,79,0.06,,,0.22,WeatherTracker,2013-03-09 17:25:00,
2013-03-09 12:30:00,42.9,36.5,30.25,ENE,71,3.0,0.0,78,0.05,,,0.22,WeatherTracker,2013-03-09 17:30:00,
2013-03-09 12:35:00,43.3,36.9,30.25,North,5,1.0,0.0,78,0.05,,,0.23,WeatherTracker,2013-03-09 17:35:00,
2013-03-09 12:45:00,44.7,37.3,30.25,ENE,75,2.0,0.0,75,0.05,,,0.24,WeatherTracker,2013-03-09 17:45:00,
2013-03-09 12:50:00,45.3,37.9,30.25,ESE,108,1.0,0.0,75,0.05,,,0.24,WeatherTracker,2013-03-09 17:50:00,
2013-03-09 12:55:00,45.8,37.6,30.25,ESE,113,1.0,0.0,73,0.04,,,0.24,WeatherTracker,2013-03-09 17:55:00,
2013-03-09 13:00:00,46.3,38.1,30.25,East,88,2.0,0.0,73,0.04,,,0.24,WeatherTracker,2013-03-09 18:00:00,
2013-03-09 13:10:00,47.4,37.7,30.24,South,173,1.0,0.0,69,0.04,,,0.25,WeatherTracker,2013-03-09 18:10:00,
2013-03-09 13:15:00,47.8,37.0,30.24,East,90,3.0,0.0,66,0.04,,,0.25,WeatherTracker,2013-03-09 18:15:00,
2013-03-09 13:25:00,48.0,34.8,30.24,ENE,58,0.0,0.0,60,0.04,,,0.26,WeatherTracker,2013-03-09 18:25:00,
2013-03-09 13:30:00,48.4,35.6,30.24,East,90,8.0,0.0,61,0.04,,,0.26,WeatherTracker,2013-03-09 18:30:00,
2013-03-09 13:35:00,48.5,35.7,30.24,SE,126,0.0,0.0,61,0.03,,,0.26,WeatherTracker,2013-03-09 18:35:00,
2013-03-09 13:45:00,49.0,34.4,30.24,ESE,118,5.0,0.0,57,0.02,,,0.26,WeatherTracker,2013-03-09 18:45:00,
2013-03-09 13:50:00,49.0,34.9,30.24,ESE,121,3.0,0.0,58,0.02,,,0.26,WeatherTracker,2013-03-09 18:50:00,
2013-03-09 14:00:00,49.4,36.5,30.23,SE,138,0.0,0.0,61,0.02,,,0.26,WeatherTracker,2013-03-09 19:00:00,
2013-03-09 14:05:00,50.1,38.0,30.23,NNE,15,0.0,0.0,63,0.02,,,0.26,WeatherTracker,2013-03-09 19:05:00,
2013-03-09 14:10:00,50.6,35.0,30.23,SE,134,3.0,0.0,55,0.01,,,0.26,WeatherTracker,2013-03-09 19:10:00,
2013-03-09 14:20:00,50.5,35.8,30.23,SSE,167,3.0,0.0,57,0.01,,,0.26,WeatherTracker,2013-03-09 19:20:00,
2013-03-09 14:25:00,50.6,35.5,30.23,SE,138,4.0,0.0,56,0.00,,,0.26,WeatherTracker,2013-03-09 19:25:00,
2013-03-09 14:35:00,50.7,34.2,30.23,SE,127,1.0,0.0,53,0.00,,,0.26,WeatherTracker,2013-03-09 19:35:00,
2013-03-09 14:45:00,50.8,29.7,30.23,East,80,2.0,0.0,44,0.00,,,0.26,WeatherTracker,2013-03-09 19:45:00,
2013-03-09 14:55:00,51.3,25.9,30.23,SE,143,6.0,0.0,37,0.00,,,0.26,WeatherTracker,2013-03-09 19:55:00,
2013-03-09 15:05:00,51.4,25.4,30.23,SSE,148,4.0,0.0,36,0.00,,,0.26,WeatherTracker,2013-03-09 20:05:00,
2013-03-09 15:10:00,51.5,24.8,30.23,SE,128,2.0,0.0,35,0.00,,,0.26,WeatherTracker,2013-03-09 20:10:00,
2013-03-09 15:15:00,51.5,25.4,30.23,South,173,5.0,0.0,36,0.00,,,0.26,WeatherTracker,2013-03-09 20:15:00,
2013-03-09 15:20:00,51.4,24.7,30.23,East,81,1.0,0.0,35,0.00,,,0.26,WeatherTracker,2013-03-09 20:20:00,
2013-03-09 15:25:00,51.3,24.6,30.23,South,181,3.0,0.0,35,0.00,,,0.26,WeatherTracker,2013-03-09 20:25:00,
2013-03-09 15:35:00,51.2,27.1,30.23,SSE,153,3.0,0.0,39,0.00,,,0.26,WeatherTracker,2013-03-09 20:35:00,
2013-03-09 15:40:00,50.5,30.5,30.23,SSE,148,4.0,0.0,46,0.00,,,0.26,WeatherTracker,2013-03-09 20:40:00,
2013-03-09 15:50:00,49.2,32.8,30.24,South,170,5.0,0.0,53,0.00,,,0.26,WeatherTracker,2013-03-09 20:50:00,
2013-03-09 15:55:00,48.5,33.1,30.24,SSE,147,6.0,0.0,55,0.00,,,0.26,WeatherTracker,2013-03-09 20:55:00,
2013-03-09 16:00:00,47.8,32.9,30.25,SSE,161,4.0,0.0,56,0.00,,,0.26,WeatherTracker,2013-03-09 21:00:00,
2013-03-09 16:05:00,47.2,32.8,30.25,SW,218,3.0,0.0,57,0.00,,,0.26,WeatherTracker,2013-03-09 21:05:00,
2013-03-09 16:15:00,46.7,32.7,30.26,SE,142,6.0,0.0,58,0.00,,,0.26,WeatherTracker,2013-03-09 21:15:00,
2013-03-09 16:20:00,46.3,32.8,30.26,SE,144,3.0,0.0,59,0.00,,,0.26,WeatherTracker,2013-03-09 21:20:00,
2013-03-09 16:25:00,46.1,32.6,30.26,ESE,121,2.0,0.0,59,0.00,,,0.26,WeatherTracker,2013-03-09 21:25:00,
2013-03-09 16:30:00,45.5,32.4,30.26,SSW,200,5.0,0.0,60,0.00,,,0.26,WeatherTracker,2013-03-09 21:30:00,
2013-03-09 16:40:00,44.8,32.6,30.27,SSE,163,5.0,0.0,62,0.00,,,0.26,WeatherTracker,2013-03-09 21:40:00,
2013-03-09 16:45:00,44.5,32.3,30.27,ESE,121,2.0,0.0,62,0.00,,,0.26,WeatherTracker,2013-03-09 21:45:00,
2013-03-09 16:55:00,44.1,32.7,30.27,WSW,247,2.0,0.0,64,0.00,,,0.26,WeatherTracker,2013-03-09 21:55:00,
2013-03-09 17:05:00,43.4,32.8,30.28,South,188,1.0,0.0,66,0.00,,,0.26,WeatherTracker,2013-03-09 22:05:00,
2013-03-09 17:15:00,42.8,32.2,30.28,SSW,213,2.0,0.0,66,0.00,,,0.26,WeatherTracker,2013-03-09 22:15:00,
2013-03-09 17:20:00,42.3,32.1,30.28,South,170,2.0,0.0,67,0.00,,,0.26,WeatherTracker,2013-03-09 22:20:00,
2013-03-09 17:25:00,41.9,32.1,30.29,South,184,1.0,0.0,68,0.00,,,0.26,WeatherTracker,2013-03-09 22:25:00,
2013-03-09 17:30:00,41.5,32.1,30.29,South,182,1.0,0.0,69,0.00,,,0.26,WeatherTracker,2013-03-09 22:30:00,
2013-03-09 17:35:00,41.1,32.1,30.29,SSW,198,1.0,0.0,70,0.00,,,0.26,WeatherTracker,2013-03-09 22:35:00,
2013-03-09 17:45:00,40.4,32.1,30.30,SW,217,0.0,0.0,72,0.00,,,0.26,WeatherTracker,2013-03-09 22:45:00,
2013-03-09 17:55:00,39.7,31.8,30.30,SSW,196,0.0,0.0,73,0.00,,,0.26,WeatherTracker,2013-03-09 22:55:00,
2013-03-09 18:00:00,39.3,31.7,30.30,SSW,197,0.0,0.0,74,0.00,,,0.26,WeatherTracker,2013-03-09 23:00:00,
2013-03-09 18:05:00,39.0,31.8,30.30,SSW,202,0.0,0.0,75,0.00,,,0.26,WeatherTracker,2013-03-09 23:05:00,
2013-03-09 18:10:00,38.8,31.9,30.30,SSW,194,2.0,0.0,76,0.00,,,0.26,WeatherTracker,2013-03-09 23:10:00,
2013-03-09 18:20:00,38.1,31.5,30.30,South,179,0.0,0.0,77,0.00,,,0.26,WeatherTracker,2013-03-09 23:20:00,
2013-03-09 18:25:00,37.9,31.7,30.31,South,188,1.0,0.0,78,0.00,,,0.26,WeatherTracker,2013-03-09 23:25:00,
2013-03-09 18:30:00,37.7,31.5,30.31,South,186,1.0,0.0,78,0.00,,,0.26,WeatherTracker,2013-03-09 23:30:00,
2013-03-09 18:40:00,37.0,31.4,30.31,SSW,207,0.0,0.0,80,0.00,,,0.26,WeatherTracker,2013-03-09 23:40:00,
2013-03-09 18:45:00,36.7,31.1,30.31,SSW,205,0.0,0.0,80,0.00,,,0.26,WeatherTracker,2013-03-09 23:45:00,
2013-03-09 18:55:00,36.2,31.2,30.31,SSW,203,0.0,0.0,82,0.00,,,0.26,WeatherTracker,2013-03-09 23:55:00,
2013-03-09 19:00:00,36.0,31.0,30.31,SSW,202,0.0,0.0,82,0.00,,,0.26,WeatherTracker,2013-03-10 00:00:00,
2013-03-09 19:05:00,35.8,31.2,30.32,SSE,154,0.0,0.0,83,0.00,,,0.26,WeatherTracker,2013-03-10 00:05:00,
2013-03-09 19:10:00,35.7,31.1,30.32,SSE,155,0.0,0.0,83,0.00,,,0.26,WeatherTracker,2013-03-10 00:10:00,
2013-03-09 19:20:00,35.4,30.8,30.32,SSE,155,0.0,0.0,83,0.00,,,0.26,WeatherTracker,2013-03-10 00:20:00,
2013-03-09 19:25:00,35.2,30.6,30.32,SSE,155,0.0,0.0,83,0.00,,,0.26,WeatherTracker,2013-03-10 00:25:00,
2013-03-09 19:35:00,34.7,30.7,30.32,SSE,155,0.0,0.0,85,0.00,,,0.26,WeatherTracker,2013-03-10 00:35:00,
2013-03-09 19:40:00,34.5,30.5,30.33,SSE,155,0.0,0.0,85,0.00,,,0.26,WeatherTracker,2013-03-10 00:40:00,
2013-03-09 19:45:00,34.3,30.3,30.33,SSE,155,0.0,0.0,85,0.00,,,0.26,WeatherTracker,2013-03-10 00:45:00,
2013-03-09 19:55:00,33.7,30.3,30.33,SSE,155,0.0,0.0,87,0.00,,,0.26,WeatherTracker,2013-03-10 00:55:00,
2013-03-09 20:05:00,33.0,29.8,30.34,SSE,155,0.0,0.0,88,0.00,,,0.26,WeatherTracker,2013-03-10 01:05:00,
2013-03-09 20:15:00,32.5,29.6,30.34,SSE,155,0.0,0.0,89,0.00,,,0.26,WeatherTracker,2013-03-10 01:15:00,
2013-03-09 20:20:00,32.3,29.4,30.34,SSE,155,0.0,0.0,89,0.00,,,0.26,WeatherTracker,2013-03-10 01:20:00,
2013-03-09 20:30:00,32.0,29.1,30.34,SSE,155,0.0,0.0,89,0.00,,,0.26,WeatherTracker,2013-03-10 01:30:00,
2013-03-09 20:35:00,31.7,28.6,30.34,SSE,155,0.0,0.0,88,0.00,,,0.26,WeatherTracker,2013-03-10 01:35:00,
2013-03-09 20:40:00,31.5,28.4,30.34,SSE,155,0.0,0.0,88,0.00,,,0.26,WeatherTracker,2013-03-10 01:40:00,
2013-03-09 20:45:00,31.2,28.3,30.34,SSE,155,0.0,0.0,89,0.00,,,0.26,WeatherTracker,2013-03-10 01:45:00,
2013-03-09 20:55:00,30.8,27.9,30.35,SSE,155,0.0,0.0,89,0.00,,,0.26,WeatherTracker,2013-03-10 01:55:00,
2013-03-09 21:00:00,30.7,27.8,30.35,SSE,155,0.0,0.0,89,0.00,,,0.26,WeatherTracker,2013-03-10 02:00:00,
2013-03-09 21:10:00,30.4,27.8,30.35,SSE,155,0.0,0.0,90,0.00,,,0.26,WeatherTracker,2013-03-10 02:10:00,
2013-03-09 21:15:00,30.3,28.0,30.35,SSE,155,0.0,0.0,91,0.00,,,0.26,WeatherTracker,2013-03-10 02:15:00,
2013-03-09 21:20:00,30.2,27.9,30.35,SSE,155,0.0,0.0,91,0.00,,,0.26,WeatherTracker,2013-03-10 02:20:00,
2013-03-09 21:25:00,30.0,27.7,30.35,SSE,155,0.0,0.0,91,0.00,,,0.26,WeatherTracker,2013-03-10 02:25:00,
2013-03-09 21:30:00,29.9,27.9,30.35,SSE,155,0.0,0.0,92,0.00,,,0.26,WeatherTracker,2013-03-10 02:30:00,
2013-03-09 21:40:00,29.6,27.6,30.35,SSE,155,0.0,0.0,92,0.00,,,0.26,WeatherTracker,2013-03-10 02:40:00,
2013-03-09 21:50:00,29.4,27.4,30.35,SSE,155,0.0,0.0,92,0.00,,,0.26,WeatherTracker,2013-03-10 02:50:00,
2013-03-09 21:55:00,29.3,27.3,30.34,SSE,155,0.0,0.0,92,0.00,,,0.26,WeatherTracker,2013-03-10 02:55:00,
2013-03-09 22:00:00,29.2,27.4,30.34,SSE,155,0.0,0.0,93,0.00,,,0.26,WeatherTracker,2013-03-10 03:00:00,
2013-03-09 22:10:00,29.1,27.3,30.34,SSE,155,0.0,0.0,93,0.00,,,0.26,WeatherTracker,2013-03-10 03:10:00,
2013-03-09 22:20:00,29.0,27.2,30.34,SSE,155,0.0,0.0,93,0.00,,,0.26,WeatherTracker,2013-03-10 03:20:00,
2013-03-09 22:25:00,28.9,27.1,30.34,SSE,155,0.0,0.0,93,0.00,,,0.26,WeatherTracker,2013-03-10 03:25:00,
2013-03-09 22:35:00,28.8,27.0,30.35,SSE,155,0.0,0.0,93,0.00,,,0.26,WeatherTracker,2013-03-10 03:35:00,
2013-03-09 22:40:00,28.7,27.2,30.34,SSE,155,0.0,0.0,94,0.00,,,0.26,WeatherTracker,2013-03-10 03:40:00,
2013-03-09 22:45:00,28.7,27.2,30.34,SSE,155,0.0,0.0,94,0.00,,,0.26,WeatherTracker,2013-03-10 03:45:00,
2013-03-09 22:50:00,28.6,27.1,30.34,SSE,155,0.0,0.0,94,0.00,,,0.26,WeatherTracker,2013-03-10 03:50:00,
2013-03-09 22:55:00,28.5,27.0,30.35,SSE,155,0.0,0.0,94,0.00,,,0.26,WeatherTracker,2013-03-10 03:55:00,
2013-03-09 23:00:00,28.5,27.0,30.35,SSE,155,0.0,0.0,94,0.00,,,0.26,WeatherTracker,2013-03-10 04:00:00,
2013-03-09 23:10:00,28.4,26.9,30.35,SSE,155,0.0,0.0,94,0.00,,,0.26,WeatherTracker,2013-03-10 04:10:00,
2013-03-09 23:15:00,28.3,26.8,30.35,SSE,155,0.0,0.0,94,0.00,,,0.26,WeatherTracker,2013-03-10 04:15:00,
2013-03-09 23:25:00,28.2,26.7,30.35,SSE,155,0.0,0.0,94,0.00,,,0.26,WeatherTracker,2013-03-10 04:25:00,
2013-03-09 23:30:00,28.1,26.6,30.35,SSE,155,0.0,0.0,94,0.00,,,0.26,WeatherTracker,2013-03-10 04:30:00,
2013-03-09 23:40:00,27.9,26.4,30.36,SSE,155,0.0,0.0,94,0.00,,,0.26,WeatherTracker,2013-03-10 04:40:00,
2013-03-09 23:45:00,27.9,26.4,30.36,SSE,155,0.0,0.0,94,0.00,,,0.26,WeatherTracker,2013-03-10 04:45:00,
2013-03-09 23:50:00,27.8,26.3,30.36,SSE,155,0.0,0.0,94,0.00,,,0.26,WeatherTracker,2013-03-10 04:50:00,
2013-03-09 23:55:00,27.8,26.3,30.36,SSE,155,0.0,0.0,94,0.00,,,0.26,WeatherTracker,2013-03-10 04:55:00,